sensor_id;sensor_type;location;lat;lon;timestamp;temperature;humidity
35395;DHT22;21500;45.308;9.488;2023-05-29T00:00:30;20.80;99.90
35395;DHT22;21500;45.308;9.488;2023-05-29T00:02:57;20.80;99.90
35395;DHT22;21500;45.308;9.488;2023-05-29T00:05:24;20.70;99.90
35395;DHT22;21500;45.308;9.488;2023-05-29T00:07:49;20.70;99.90
35395;DHT22;21500;45.308;9.488;2023-05-29T00:10:16;20.50;99.90
35395;DHT22;21500;45.308;9.488;2023-05-29T00:12:41;20.50;99.90
35395;DHT22;21500;45.308;9.488;2023-05-29T00:15:08;20.60;99.90
35395;DHT22;21500;45.308;9.488;2023-05-29T00:17:35;20.60;99.90
35395;DHT22;21500;45.308;9.488;2023-05-29T00:20:01;20.60;99.90
35395;DHT22;21500;45.308;9.488;2023-05-29T00:22:28;20.80;99.90
35395;DHT22;21500;45.308;9.488;2023-05-29T00:24:54;20.50;99.90
35395;DHT22;21500;45.308;9.488;2023-05-29T00:27:20;20.60;99.90
35395;DHT22;21500;45.308;9.488;2023-05-29T00:29:46;20.50;99.90
35395;DHT22;21500;45.308;9.488;2023-05-29T00:32:12;20.50;99.90
35395;DHT22;21500;45.308;9.488;2023-05-29T00:34:37;20.40;99.90
35395;DHT22;21500;45.308;9.488;2023-05-29T00:37:03;20.40;99.90
35395;DHT22;21500;45.308;9.488;2023-05-29T00:39:29;20.50;99.90
35395;DHT22;21500;45.308;9.488;2023-05-29T00:41:54;20.50;99.90
35395;DHT22;21500;45.308;9.488;2023-05-29T00:44:21;20.50;99.90
35395;DHT22;21500;45.308;9.488;2023-05-29T00:46:47;20.40;99.90
35395;DHT22;21500;45.308;9.488;2023-05-29T00:49:13;20.60;99.90
35395;DHT22;21500;45.308;9.488;2023-05-29T00:51:39;20.40;99.90
35395;DHT22;21500;45.308;9.488;2023-05-29T00:54:06;20.50;99.90
35395;DHT22;21500;45.308;9.488;2023-05-29T00:56:35;20.40;99.90
35395;DHT22;21500;45.308;9.488;2023-05-29T00:59:01;20.20;99.90
35395;DHT22;21500;45.308;9.488;2023-05-29T01:01:27;20.20;99.90
35395;DHT22;21500;45.308;9.488;2023-05-29T01:03:57;18.80;99.90
35395;DHT22;21500;45.308;9.488;2023-05-29T01:06:23;20.30;99.90
35395;DHT22;21500;45.308;9.488;2023-05-29T01:08:48;20.30;99.90
35395;DHT22;21500;45.308;9.488;2023-05-29T01:13:47;20.20;99.90
35395;DHT22;21500;45.308;9.488;2023-05-29T01:16:35;20.20;99.90
35395;DHT22;21500;45.308;9.488;2023-05-29T01:24:49;20.20;99.90
35395;DHT22;21500;45.308;9.488;2023-05-29T01:27:17;20.10;99.90
35395;DHT22;21500;45.308;9.488;2023-05-29T01:29:43;20.20;99.90
35395;DHT22;21500;45.308;9.488;2023-05-29T01:32:10;20.20;99.90
35395;DHT22;21500;45.308;9.488;2023-05-29T01:34:39;20.20;99.90
35395;DHT22;21500;45.308;9.488;2023-05-29T01:37:05;20.20;99.90
35395;DHT22;21500;45.308;9.488;2023-05-29T01:39:31;20.10;99.90
35395;DHT22;21500;45.308;9.488;2023-05-29T01:41:57;20.20;99.90
35395;DHT22;21500;45.308;9.488;2023-05-29T01:44:23;20.10;99.90
35395;DHT22;21500;45.308;9.488;2023-05-29T01:46:50;20.10;99.90
35395;DHT22;21500;45.308;9.488;2023-05-29T01:49:16;20.10;99.90
35395;DHT22;21500;45.308;9.488;2023-05-29T01:51:42;20.10;99.90
35395;DHT22;21500;45.308;9.488;2023-05-29T01:54:08;20.10;99.90
35395;DHT22;21500;45.308;9.488;2023-05-29T01:56:34;20.00;99.90
35395;DHT22;21500;45.308;9.488;2023-05-29T01:59:01;20.00;99.90
35395;DHT22;21500;45.308;9.488;2023-05-29T02:01:27;20.00;99.90
35395;DHT22;21500;45.308;9.488;2023-05-29T02:03:54;19.90;99.90
35395;DHT22;21500;45.308;9.488;2023-05-29T02:06:20;20.10;99.90
35395;DHT22;21500;45.308;9.488;2023-05-29T02:08:46;20.00;99.90
35395;DHT22;21500;45.308;9.488;2023-05-29T02:11:11;20.00;99.90
35395;DHT22;21500;45.308;9.488;2023-05-29T02:13:37;20.10;99.90
35395;DHT22;21500;45.308;9.488;2023-05-29T02:16:03;20.10;99.90
35395;DHT22;21500;45.308;9.488;2023-05-29T02:18:29;20.10;99.90
35395;DHT22;21500;45.308;9.488;2023-05-29T02:20:55;20.10;99.90
35395;DHT22;21500;45.308;9.488;2023-05-29T02:23:21;20.10;99.90
35395;DHT22;21500;45.308;9.488;2023-05-29T02:25:47;20.00;99.90
35395;DHT22;21500;45.308;9.488;2023-05-29T02:28:12;20.00;99.90
35395;DHT22;21500;45.308;9.488;2023-05-29T02:30:39;19.80;99.90
35395;DHT22;21500;45.308;9.488;2023-05-29T02:33:04;19.90;99.90
35395;DHT22;21500;45.308;9.488;2023-05-29T02:35:33;20.00;99.90
35395;DHT22;21500;45.308;9.488;2023-05-29T02:37:59;20.00;99.90
35395;DHT22;21500;45.308;9.488;2023-05-29T02:40:24;20.00;99.90
35395;DHT22;21500;45.308;9.488;2023-05-29T02:42:50;20.00;99.90
35395;DHT22;21500;45.308;9.488;2023-05-29T02:45:16;19.90;99.90
35395;DHT22;21500;45.308;9.488;2023-05-29T02:47:42;19.80;99.90
35395;DHT22;21500;45.308;9.488;2023-05-29T02:50:07;19.90;99.90
35395;DHT22;21500;45.308;9.488;2023-05-29T02:52:34;20.00;99.90
35395;DHT22;21500;45.308;9.488;2023-05-29T02:54:59;19.80;99.90
35395;DHT22;21500;45.308;9.488;2023-05-29T02:57:25;19.90;99.90
35395;DHT22;21500;45.308;9.488;2023-05-29T02:59:51;19.90;99.90
35395;DHT22;21500;45.308;9.488;2023-05-29T03:02:18;19.90;99.90
35395;DHT22;21500;45.308;9.488;2023-05-29T03:04:44;19.70;99.90
35395;DHT22;21500;45.308;9.488;2023-05-29T03:07:11;19.80;99.90
35395;DHT22;21500;45.308;9.488;2023-05-29T03:09:38;19.80;99.90
35395;DHT22;21500;45.308;9.488;2023-05-29T03:12:03;19.70;99.90
35395;DHT22;21500;45.308;9.488;2023-05-29T03:14:29;19.80;99.90
35395;DHT22;21500;45.308;9.488;2023-05-29T03:16:56;19.70;99.90
35395;DHT22;21500;45.308;9.488;2023-05-29T03:19:22;19.80;99.90
35395;DHT22;21500;45.308;9.488;2023-05-29T03:21:47;19.80;99.90
35395;DHT22;21500;45.308;9.488;2023-05-29T03:24:13;19.80;99.90
35395;DHT22;21500;45.308;9.488;2023-05-29T03:26:39;19.10;99.90
35395;DHT22;21500;45.308;9.488;2023-05-29T03:29:06;19.30;99.90
35395;DHT22;21500;45.308;9.488;2023-05-29T03:31:33;19.80;99.90
35395;DHT22;21500;45.308;9.488;2023-05-29T03:33:59;19.80;99.90
35395;DHT22;21500;45.308;9.488;2023-05-29T03:36:34;19.70;99.90
35395;DHT22;21500;45.308;9.488;2023-05-29T03:39:02;19.60;99.90
35395;DHT22;21500;45.308;9.488;2023-05-29T03:41:29;19.70;99.90
35395;DHT22;21500;45.308;9.488;2023-05-29T03:43:55;19.80;99.90
35395;DHT22;21500;45.308;9.488;2023-05-29T03:46:24;19.80;99.90
35395;DHT22;21500;45.308;9.488;2023-05-29T03:48:49;19.80;99.90
35395;DHT22;21500;45.308;9.488;2023-05-29T03:51:15;19.80;99.90
35395;DHT22;21500;45.308;9.488;2023-05-29T03:53:41;19.90;99.90
35395;DHT22;21500;45.308;9.488;2023-05-29T03:56:07;19.80;99.90
35395;DHT22;21500;45.308;9.488;2023-05-29T03:58:33;19.80;99.90
35395;DHT22;21500;45.308;9.488;2023-05-29T04:01:00;19.70;99.90
35395;DHT22;21500;45.308;9.488;2023-05-29T04:03:28;19.80;99.90
35395;DHT22;21500;45.308;9.488;2023-05-29T04:05:54;19.80;99.90
35395;DHT22;21500;45.308;9.488;2023-05-29T04:08:21;19.90;99.90
35395;DHT22;21500;45.308;9.488;2023-05-29T04:10:46;20.00;99.90
35395;DHT22;21500;45.308;9.488;2023-05-29T04:13:12;20.00;99.90
35395;DHT22;21500;45.308;9.488;2023-05-29T04:15:38;20.10;99.90
35395;DHT22;21500;45.308;9.488;2023-05-29T04:18:04;19.20;99.90
35395;DHT22;21500;45.308;9.488;2023-05-29T04:20:29;20.30;99.90
35395;DHT22;21500;45.308;9.488;2023-05-29T04:22:56;20.20;99.90
35395;DHT22;21500;45.308;9.488;2023-05-29T04:25:23;20.30;99.90
35395;DHT22;21500;45.308;9.488;2023-05-29T04:27:49;20.20;99.90
35395;DHT22;21500;45.308;9.488;2023-05-29T04:30:18;20.20;99.90
35395;DHT22;21500;45.308;9.488;2023-05-29T04:32:47;19.80;99.90
35395;DHT22;21500;45.308;9.488;2023-05-29T04:35:14;19.60;99.90
35395;DHT22;21500;45.308;9.488;2023-05-29T04:37:48;19.70;99.90
35395;DHT22;21500;45.308;9.488;2023-05-29T04:40:14;19.80;99.90
35395;DHT22;21500;45.308;9.488;2023-05-29T04:42:44;19.70;99.90
35395;DHT22;21500;45.308;9.488;2023-05-29T04:45:13;19.50;99.90
35395;DHT22;21500;45.308;9.488;2023-05-29T04:47:40;18.30;99.90
35395;DHT22;21500;45.308;9.488;2023-05-29T04:50:12;19.70;99.90
35395;DHT22;21500;45.308;9.488;2023-05-29T04:52:39;19.70;99.90
35395;DHT22;21500;45.308;9.488;2023-05-29T04:55:08;19.60;99.90
35395;DHT22;21500;45.308;9.488;2023-05-29T04:57:33;19.50;99.90
35395;DHT22;21500;45.308;9.488;2023-05-29T05:00:00;19.60;99.90
35395;DHT22;21500;45.308;9.488;2023-05-29T05:02:27;19.70;99.90
35395;DHT22;21500;45.308;9.488;2023-05-29T05:04:52;19.70;99.90
35395;DHT22;21500;45.308;9.488;2023-05-29T05:07:18;19.50;99.90
35395;DHT22;21500;45.308;9.488;2023-05-29T05:09:44;19.60;99.90
35395;DHT22;21500;45.308;9.488;2023-05-29T05:12:17;19.30;99.90
35395;DHT22;21500;45.308;9.488;2023-05-29T05:14:43;19.50;99.90
35395;DHT22;21500;45.308;9.488;2023-05-29T05:17:09;19.30;99.90
35395;DHT22;21500;45.308;9.488;2023-05-29T05:19:35;19.30;99.90
35395;DHT22;21500;45.308;9.488;2023-05-29T05:22:00;19.40;99.90
35395;DHT22;21500;45.308;9.488;2023-05-29T05:24:27;19.80;99.90
35395;DHT22;21500;45.308;9.488;2023-05-29T05:26:53;19.50;99.90
35395;DHT22;21500;45.308;9.488;2023-05-29T05:29:19;19.40;99.90
35395;DHT22;21500;45.308;9.488;2023-05-29T05:31:46;19.60;99.90
35395;DHT22;21500;45.308;9.488;2023-05-29T05:34:12;19.80;99.90
35395;DHT22;21500;45.308;9.488;2023-05-29T05:36:39;19.90;99.90
35395;DHT22;21500;45.308;9.488;2023-05-29T05:39:10;19.70;99.90
35395;DHT22;21500;45.308;9.488;2023-05-29T05:41:37;19.60;99.90
35395;DHT22;21500;45.308;9.488;2023-05-29T05:44:06;19.70;99.90
35395;DHT22;21500;45.308;9.488;2023-05-29T05:46:48;19.90;99.90
35395;DHT22;21500;45.308;9.488;2023-05-29T05:49:20;19.90;99.90
35395;DHT22;21500;45.308;9.488;2023-05-29T05:51:46;19.90;99.90
35395;DHT22;21500;45.308;9.488;2023-05-29T05:54:12;19.90;99.90
35395;DHT22;21500;45.308;9.488;2023-05-29T05:56:45;19.40;99.90
35395;DHT22;21500;45.308;9.488;2023-05-29T05:59:19;20.50;99.90
35395;DHT22;21500;45.308;9.488;2023-05-29T06:01:48;20.40;99.90
35395;DHT22;21500;45.308;9.488;2023-05-29T06:04:14;20.60;99.90
35395;DHT22;21500;45.308;9.488;2023-05-29T06:06:44;20.90;99.90
35395;DHT22;21500;45.308;9.488;2023-05-29T06:09:10;21.10;99.90
35395;DHT22;21500;45.308;9.488;2023-05-29T06:11:37;20.70;99.90
35395;DHT22;21500;45.308;9.488;2023-05-29T06:14:05;20.80;99.90
35395;DHT22;21500;45.308;9.488;2023-05-29T06:16:31;21.10;99.90
35395;DHT22;21500;45.308;9.488;2023-05-29T06:18:57;21.00;99.90
35395;DHT22;21500;45.308;9.488;2023-05-29T06:21:24;21.50;99.90
35395;DHT22;21500;45.308;9.488;2023-05-29T06:23:54;21.60;99.90
35395;DHT22;21500;45.308;9.488;2023-05-29T06:26:20;21.50;99.90
35395;DHT22;21500;45.308;9.488;2023-05-29T06:28:48;21.40;99.90
35395;DHT22;21500;45.308;9.488;2023-05-29T06:31:14;22.00;99.90
35395;DHT22;21500;45.308;9.488;2023-05-29T06:33:40;21.90;99.90
35395;DHT22;21500;45.308;9.488;2023-05-29T06:36:06;22.00;99.90
35395;DHT22;21500;45.308;9.488;2023-05-29T06:38:38;22.50;99.90
35395;DHT22;21500;45.308;9.488;2023-05-29T06:41:48;22.70;99.90
35395;DHT22;21500;45.308;9.488;2023-05-29T06:44:17;22.50;99.90
35395;DHT22;21500;45.308;9.488;2023-05-29T06:46:43;22.70;99.90
35395;DHT22;21500;45.308;9.488;2023-05-29T06:49:11;22.00;99.90
35395;DHT22;21500;45.308;9.488;2023-05-29T06:51:37;22.10;99.90
35395;DHT22;21500;45.308;9.488;2023-05-29T07:30:00;24.00;99.90
35395;DHT22;21500;45.308;9.488;2023-05-29T07:44:44;24.10;99.90
35395;DHT22;21500;45.308;9.488;2023-05-29T07:51:38;23.70;99.90
35395;DHT22;21500;45.308;9.488;2023-05-29T07:58:04;24.30;99.90
35395;DHT22;21500;45.308;9.488;2023-05-29T08:05:01;25.30;99.90
35395;DHT22;21500;45.308;9.488;2023-05-29T08:15:32;24.30;99.90
35395;DHT22;21500;45.308;9.488;2023-05-29T10:18:47;26.50;97.40
35395;DHT22;21500;45.308;9.488;2023-05-29T10:21:15;26.10;97.50
35395;DHT22;21500;45.308;9.488;2023-05-29T10:23:43;26.50;98.50
35395;DHT22;21500;45.308;9.488;2023-05-29T10:26:12;26.70;97.60
35395;DHT22;21500;45.308;9.488;2023-05-29T10:28:40;26.90;97.80
35395;DHT22;21500;45.308;9.488;2023-05-29T10:31:08;27.10;97.40
35395;DHT22;21500;45.308;9.488;2023-05-29T10:36:21;26.50;96.80
35395;DHT22;21500;45.308;9.488;2023-05-29T10:38:49;26.40;97.00
35395;DHT22;21500;45.308;9.488;2023-05-29T10:43:53;26.40;97.30
35395;DHT22;21500;45.308;9.488;2023-05-29T10:46:19;26.50;97.10
35395;DHT22;21500;45.308;9.488;2023-05-29T10:48:47;26.70;97.10
35395;DHT22;21500;45.308;9.488;2023-05-29T10:51:24;26.80;97.10
35395;DHT22;21500;45.308;9.488;2023-05-29T10:53:50;26.90;97.30
35395;DHT22;21500;45.308;9.488;2023-05-29T10:56:16;27.20;96.80
35395;DHT22;21500;45.308;9.488;2023-05-29T10:58:45;27.40;96.90
35395;DHT22;21500;45.308;9.488;2023-05-29T11:01:16;27.60;96.20
35395;DHT22;21500;45.308;9.488;2023-05-29T11:03:46;26.80;95.70
35395;DHT22;21500;45.308;9.488;2023-05-29T11:06:19;26.10;97.00
35395;DHT22;21500;45.308;9.488;2023-05-29T11:11:12;26.90;96.80
35395;DHT22;21500;45.308;9.488;2023-05-29T11:13:38;26.90;96.70
35395;DHT22;21500;45.308;9.488;2023-05-29T11:16:13;27.00;96.70
35395;DHT22;21500;45.308;9.488;2023-05-29T11:18:40;27.30;97.80
35395;DHT22;21500;45.308;9.488;2023-05-29T11:21:10;27.50;97.60
35395;DHT22;21500;45.308;9.488;2023-05-29T11:23:38;27.20;98.00
35395;DHT22;21500;45.308;9.488;2023-05-29T11:26:05;27.20;97.80
35395;DHT22;21500;45.308;9.488;2023-05-29T11:28:32;26.80;97.80
35395;DHT22;21500;45.308;9.488;2023-05-29T11:30:58;26.80;97.70
35395;DHT22;21500;45.308;9.488;2023-05-29T11:33:26;26.70;97.80
35395;DHT22;21500;45.308;9.488;2023-05-29T11:35:55;26.60;97.20
35395;DHT22;21500;45.308;9.488;2023-05-29T11:38:21;26.50;97.30
35395;DHT22;21500;45.308;9.488;2023-05-29T11:40:46;26.40;97.90
35395;DHT22;21500;45.308;9.488;2023-05-29T11:43:12;25.90;98.30
35395;DHT22;21500;45.308;9.488;2023-05-29T11:45:38;26.20;98.50
35395;DHT22;21500;45.308;9.488;2023-05-29T11:48:04;26.50;98.30
35395;DHT22;21500;45.308;9.488;2023-05-29T11:50:30;26.10;97.80
35395;DHT22;21500;45.308;9.488;2023-05-29T11:52:57;26.10;98.00
35395;DHT22;21500;45.308;9.488;2023-05-29T11:55:23;26.00;98.80
35395;DHT22;21500;45.308;9.488;2023-05-29T11:57:49;26.10;98.00
35395;DHT22;21500;45.308;9.488;2023-05-29T12:00:16;26.30;97.60
35395;DHT22;21500;45.308;9.488;2023-05-29T12:02:42;26.00;97.30
35395;DHT22;21500;45.308;9.488;2023-05-29T12:05:08;25.80;97.80
35395;DHT22;21500;45.308;9.488;2023-05-29T12:07:35;25.90;97.50
35395;DHT22;21500;45.308;9.488;2023-05-29T12:10:14;25.60;97.80
35395;DHT22;21500;45.308;9.488;2023-05-29T12:12:40;25.70;97.50
35395;DHT22;21500;45.308;9.488;2023-05-29T12:15:06;26.00;97.60
35395;DHT22;21500;45.308;9.488;2023-05-29T14:00:29;27.50;93.80
35395;DHT22;21500;45.308;9.488;2023-05-29T14:02:55;27.40;93.60
35395;DHT22;21500;45.308;9.488;2023-05-29T14:05:20;27.80;94.10
35395;DHT22;21500;45.308;9.488;2023-05-29T14:07:46;28.10;94.30
35395;DHT22;21500;45.308;9.488;2023-05-29T14:10:12;28.00;94.20
35395;DHT22;21500;45.308;9.488;2023-05-29T14:12:38;27.70;93.50
35395;DHT22;21500;45.308;9.488;2023-05-29T14:15:04;27.80;94.40
35395;DHT22;21500;45.308;9.488;2023-05-29T14:17:29;28.20;94.20
35395;DHT22;21500;45.308;9.488;2023-05-29T14:19:56;28.20;94.00
35395;DHT22;21500;45.308;9.488;2023-05-29T14:22:22;28.20;93.70
35395;DHT22;21500;45.308;9.488;2023-05-29T14:24:48;28.40;93.80
35395;DHT22;21500;45.308;9.488;2023-05-29T14:27:13;28.30;94.20
35395;DHT22;21500;45.308;9.488;2023-05-29T14:29:39;28.60;93.90
35395;DHT22;21500;45.308;9.488;2023-05-29T14:32:05;28.60;93.80
35395;DHT22;21500;45.308;9.488;2023-05-29T14:34:30;28.70;93.40
35395;DHT22;21500;45.308;9.488;2023-05-29T14:36:56;28.40;93.50
35395;DHT22;21500;45.308;9.488;2023-05-29T14:39:22;28.50;93.70
35395;DHT22;21500;45.308;9.488;2023-05-29T14:41:47;28.50;93.70
35395;DHT22;21500;45.308;9.488;2023-05-29T14:44:13;28.70;93.50
35395;DHT22;21500;45.308;9.488;2023-05-29T14:46:39;28.30;93.20
35395;DHT22;21500;45.308;9.488;2023-05-29T14:49:05;28.40;93.70
35395;DHT22;21500;45.308;9.488;2023-05-29T14:51:31;28.10;92.60
35395;DHT22;21500;45.308;9.488;2023-05-29T14:53:57;28.10;92.90
35395;DHT22;21500;45.308;9.488;2023-05-29T14:56:22;28.10;93.60
35395;DHT22;21500;45.308;9.488;2023-05-29T14:58:48;28.30;93.20
35395;DHT22;21500;45.308;9.488;2023-05-29T15:01:15;28.50;92.80
35395;DHT22;21500;45.308;9.488;2023-05-29T15:03:41;28.50;92.10
35395;DHT22;21500;45.308;9.488;2023-05-29T15:06:06;27.90;91.60
35395;DHT22;21500;45.308;9.488;2023-05-29T15:08:32;27.80;92.50
35395;DHT22;21500;45.308;9.488;2023-05-29T15:11:02;28.00;92.70
35395;DHT22;21500;45.308;9.488;2023-05-29T15:13:28;27.90;91.90
35395;DHT22;21500;45.308;9.488;2023-05-29T15:15:54;27.60;91.10
35395;DHT22;21500;45.308;9.488;2023-05-29T15:18:20;27.50;91.50
35395;DHT22;21500;45.308;9.488;2023-05-29T15:20:45;27.60;91.70
35395;DHT22;21500;45.308;9.488;2023-05-29T15:23:12;27.60;91.90
35395;DHT22;21500;45.308;9.488;2023-05-29T15:25:38;27.90;91.70
35395;DHT22;21500;45.308;9.488;2023-05-29T15:28:03;27.50;90.90
35395;DHT22;21500;45.308;9.488;2023-05-29T15:30:31;27.30;91.60
35395;DHT22;21500;45.308;9.488;2023-05-29T15:32:56;27.30;91.50
35395;DHT22;21500;45.308;9.488;2023-05-29T15:35:22;27.40;92.00
35395;DHT22;21500;45.308;9.488;2023-05-29T15:37:49;27.50;92.50
35395;DHT22;21500;45.308;9.488;2023-05-29T15:40:14;27.50;92.80
35395;DHT22;21500;45.308;9.488;2023-05-29T15:42:40;27.40;92.80
35395;DHT22;21500;45.308;9.488;2023-05-29T15:45:06;27.60;93.40
35395;DHT22;21500;45.308;9.488;2023-05-29T15:47:31;27.50;93.20
35395;DHT22;21500;45.308;9.488;2023-05-29T15:50:00;27.60;92.80
35395;DHT22;21500;45.308;9.488;2023-05-29T15:52:26;27.50;93.00
35395;DHT22;21500;45.308;9.488;2023-05-29T15:54:52;27.30;93.20
35395;DHT22;21500;45.308;9.488;2023-05-29T15:57:17;27.40;92.90
35395;DHT22;21500;45.308;9.488;2023-05-29T15:59:43;27.30;93.20
35395;DHT22;21500;45.308;9.488;2023-05-29T16:02:09;27.20;92.90
35395;DHT22;21500;45.308;9.488;2023-05-29T16:04:35;27.20;92.80
35395;DHT22;21500;45.308;9.488;2023-05-29T16:07:01;27.10;92.60
35395;DHT22;21500;45.308;9.488;2023-05-29T16:09:27;27.10;92.90
35395;DHT22;21500;45.308;9.488;2023-05-29T16:11:53;27.30;92.90
35395;DHT22;21500;45.308;9.488;2023-05-29T16:14:19;27.60;92.90
35395;DHT22;21500;45.308;9.488;2023-05-29T16:16:45;27.90;91.90
35395;DHT22;21500;45.308;9.488;2023-05-29T16:19:10;27.90;91.40
35395;DHT22;21500;45.308;9.488;2023-05-29T16:21:36;27.60;91.50
35395;DHT22;21500;45.308;9.488;2023-05-29T16:24:02;27.30;91.80
35395;DHT22;21500;45.308;9.488;2023-05-29T16:26:28;27.40;92.10
35395;DHT22;21500;45.308;9.488;2023-05-29T16:29:02;27.40;91.90
35395;DHT22;21500;45.308;9.488;2023-05-29T16:31:28;27.30;91.80
35395;DHT22;21500;45.308;9.488;2023-05-29T16:33:54;27.20;91.80
35395;DHT22;21500;45.308;9.488;2023-05-29T16:36:20;27.20;91.80
35395;DHT22;21500;45.308;9.488;2023-05-29T16:38:46;27.30;92.10
35395;DHT22;21500;45.308;9.488;2023-05-29T16:41:12;27.30;91.90
35395;DHT22;21500;45.308;9.488;2023-05-29T16:43:37;27.50;92.30
35395;DHT22;21500;45.308;9.488;2023-05-29T16:46:03;27.50;92.30
35395;DHT22;21500;45.308;9.488;2023-05-29T16:48:30;27.30;92.10
35395;DHT22;21500;45.308;9.488;2023-05-29T16:50:56;27.30;92.30
35395;DHT22;21500;45.308;9.488;2023-05-29T16:53:21;27.30;92.50
35395;DHT22;21500;45.308;9.488;2023-05-29T16:55:47;27.30;92.70
35395;DHT22;21500;45.308;9.488;2023-05-29T16:58:13;27.10;92.90
35395;DHT22;21500;45.308;9.488;2023-05-29T17:00:38;27.10;93.10
35395;DHT22;21500;45.308;9.488;2023-05-29T17:03:04;27.10;93.10
35395;DHT22;21500;45.308;9.488;2023-05-29T17:05:30;26.90;92.60
35395;DHT22;21500;45.308;9.488;2023-05-29T17:07:56;26.80;92.10
35395;DHT22;21500;45.308;9.488;2023-05-29T17:10:22;26.70;92.70
35395;DHT22;21500;45.308;9.488;2023-05-29T17:12:48;26.70;92.80
35395;DHT22;21500;45.308;9.488;2023-05-29T17:15:14;26.70;92.80
35395;DHT22;21500;45.308;9.488;2023-05-29T17:17:40;26.60;93.00
35395;DHT22;21500;45.308;9.488;2023-05-29T17:20:06;26.50;93.10
35395;DHT22;21500;45.308;9.488;2023-05-29T17:22:32;26.50;93.20
35395;DHT22;21500;45.308;9.488;2023-05-29T17:24:57;26.40;93.40
35395;DHT22;21500;45.308;9.488;2023-05-29T17:27:23;26.40;93.80
35395;DHT22;21500;45.308;9.488;2023-05-29T17:29:49;26.40;93.80
35395;DHT22;21500;45.308;9.488;2023-05-29T17:32:15;26.40;93.50
35395;DHT22;21500;45.308;9.488;2023-05-29T17:34:40;26.40;93.50
35395;DHT22;21500;45.308;9.488;2023-05-29T17:37:06;26.40;93.10
35395;DHT22;21500;45.308;9.488;2023-05-29T17:39:31;26.30;93.50
35395;DHT22;21500;45.308;9.488;2023-05-29T17:41:57;26.30;93.80
35395;DHT22;21500;45.308;9.488;2023-05-29T17:44:23;26.30;93.50
35395;DHT22;21500;45.308;9.488;2023-05-29T17:46:49;26.20;93.20
35395;DHT22;21500;45.308;9.488;2023-05-29T17:49:16;26.20;93.50
35395;DHT22;21500;45.308;9.488;2023-05-29T17:51:41;26.20;93.30
35395;DHT22;21500;45.308;9.488;2023-05-29T17:54:07;26.10;93.40
35395;DHT22;21500;45.308;9.488;2023-05-29T17:56:36;26.10;94.10
35395;DHT22;21500;45.308;9.488;2023-05-29T17:59:02;26.10;93.90
35395;DHT22;21500;45.308;9.488;2023-05-29T18:01:28;26.00;93.80
35395;DHT22;21500;45.308;9.488;2023-05-29T18:03:53;26.00;93.50
35395;DHT22;21500;45.308;9.488;2023-05-29T18:06:19;26.00;93.60
35395;DHT22;21500;45.308;9.488;2023-05-29T18:08:45;25.90;93.50
35395;DHT22;21500;45.308;9.488;2023-05-29T18:11:10;25.90;93.50
35395;DHT22;21500;45.308;9.488;2023-05-29T18:13:36;26.00;93.50
35395;DHT22;21500;45.308;9.488;2023-05-29T18:16:01;25.90;94.00
35395;DHT22;21500;45.308;9.488;2023-05-29T18:18:27;25.90;93.50
35395;DHT22;21500;45.308;9.488;2023-05-29T18:20:53;25.80;94.00
35395;DHT22;21500;45.308;9.488;2023-05-29T18:23:19;25.80;94.00
35395;DHT22;21500;45.308;9.488;2023-05-29T18:25:45;25.80;93.70
35395;DHT22;21500;45.308;9.488;2023-05-29T18:28:10;25.80;94.10
35395;DHT22;21500;45.308;9.488;2023-05-29T18:30:36;25.70;94.50
35395;DHT22;21500;45.308;9.488;2023-05-29T18:33:03;25.60;94.60
35395;DHT22;21500;45.308;9.488;2023-05-29T18:35:29;25.50;94.90
35395;DHT22;21500;45.308;9.488;2023-05-29T18:37:56;25.50;95.20
35395;DHT22;21500;45.308;9.488;2023-05-29T18:40:22;25.50;95.10
35395;DHT22;21500;45.308;9.488;2023-05-29T18:42:48;25.50;95.30
35395;DHT22;21500;45.308;9.488;2023-05-29T18:45:14;25.40;95.30
35395;DHT22;21500;45.308;9.488;2023-05-29T18:47:40;25.30;95.50
35395;DHT22;21500;45.308;9.488;2023-05-29T18:50:07;25.30;95.70
35395;DHT22;21500;45.308;9.488;2023-05-29T18:52:33;25.20;95.60
35395;DHT22;21500;45.308;9.488;2023-05-29T18:55:00;25.20;95.60
35395;DHT22;21500;45.308;9.488;2023-05-29T18:57:25;25.20;95.80
35395;DHT22;21500;45.308;9.488;2023-05-29T18:59:51;25.20;96.00
35395;DHT22;21500;45.308;9.488;2023-05-29T19:02:18;25.10;96.30
35395;DHT22;21500;45.308;9.488;2023-05-29T19:04:44;25.00;96.50
35395;DHT22;21500;45.308;9.488;2023-05-29T19:07:10;25.00;96.60
35395;DHT22;21500;45.308;9.488;2023-05-29T19:09:35;24.90;96.70
35395;DHT22;21500;45.308;9.488;2023-05-29T19:12:02;24.90;96.90
35395;DHT22;21500;45.308;9.488;2023-05-29T19:14:28;24.90;97.10
35395;DHT22;21500;45.308;9.488;2023-05-29T19:16:54;24.90;97.10
35395;DHT22;21500;45.308;9.488;2023-05-29T19:19:20;24.80;97.30
35395;DHT22;21500;45.308;9.488;2023-05-29T19:21:45;24.80;97.40
35395;DHT22;21500;45.308;9.488;2023-05-29T19:24:11;24.70;97.80
35395;DHT22;21500;45.308;9.488;2023-05-29T19:26:39;24.70;97.90
35395;DHT22;21500;45.308;9.488;2023-05-29T19:29:05;24.70;98.10
35395;DHT22;21500;45.308;9.488;2023-05-29T19:31:31;24.60;98.30
35395;DHT22;21500;45.308;9.488;2023-05-29T19:33:57;24.60;98.30
35395;DHT22;21500;45.308;9.488;2023-05-29T19:36:35;24.60;98.50
35395;DHT22;21500;45.308;9.488;2023-05-29T19:39:03;24.60;98.70
35395;DHT22;21500;45.308;9.488;2023-05-29T19:41:30;24.60;98.80
35395;DHT22;21500;45.308;9.488;2023-05-29T19:43:55;24.50;98.70
35395;DHT22;21500;45.308;9.488;2023-05-29T19:46:21;24.70;99.00
35395;DHT22;21500;45.308;9.488;2023-05-29T19:48:47;24.40;99.20
35395;DHT22;21500;45.308;9.488;2023-05-29T19:51:12;24.40;99.40
35395;DHT22;21500;45.308;9.488;2023-05-29T19:53:38;24.40;99.50
35395;DHT22;21500;45.308;9.488;2023-05-29T19:56:05;24.30;98.90
35395;DHT22;21500;45.308;9.488;2023-05-29T19:58:31;24.20;99.10
35395;DHT22;21500;45.308;9.488;2023-05-29T20:00:57;24.20;99.20
35395;DHT22;21500;45.308;9.488;2023-05-29T20:03:24;24.30;99.00
35395;DHT22;21500;45.308;9.488;2023-05-29T20:05:50;24.20;99.00
35395;DHT22;21500;45.308;9.488;2023-05-29T20:08:15;24.20;99.00
35395;DHT22;21500;45.308;9.488;2023-05-29T20:10:41;24.20;98.80
35395;DHT22;21500;45.308;9.488;2023-05-29T20:16:03;24.10;99.50
35395;DHT22;21500;45.308;9.488;2023-05-29T20:18:29;24.00;99.90
35395;DHT22;21500;45.308;9.488;2023-05-29T20:20:57;24.00;99.90
35395;DHT22;21500;45.308;9.488;2023-05-29T20:23:23;24.00;99.90
35395;DHT22;21500;45.308;9.488;2023-05-29T20:25:49;23.90;99.90
35395;DHT22;21500;45.308;9.488;2023-05-29T20:28:16;23.70;99.90
35395;DHT22;21500;45.308;9.488;2023-05-29T20:30:43;23.50;99.90
35395;DHT22;21500;45.308;9.488;2023-05-29T20:33:09;23.50;99.90
35395;DHT22;21500;45.308;9.488;2023-05-29T20:35:35;23.40;99.90
35395;DHT22;21500;45.308;9.488;2023-05-29T20:38:02;23.30;99.90